createdAt,value
2023-01-17T00:05:18.288Z,94984.41
2023-01-17T00:10:25.754Z,94979.50
2023-01-17T00:15:29.551Z,94976.09
2023-01-17T00:20:50.925Z,94968.41
2023-01-17T00:26:05.578Z,94971.81
2023-01-17T00:31:09.054Z,94979.88
2023-01-17T00:36:11.887Z,94992.31
2023-01-17T00:41:14.765Z,94989.88
2023-01-17T00:46:35.498Z,94992.16
2023-01-17T00:51:57.145Z,94999.72
2023-01-17T00:57:18.663Z,95002.72
2023-01-17T01:02:39.886Z,95002.16
2023-01-17T01:08:00.394Z,95004.75
2023-01-17T01:13:21.266Z,95000.81
2023-01-17T01:18:41.831Z,95014.53
2023-01-17T01:24:02.480Z,95020.72
2023-01-17T01:29:23.010Z,95007.47
2023-01-17T01:34:24.888Z,95006.09
2023-01-17T01:39:26.834Z,95000.94
2023-01-17T01:44:49.721Z,95007.88
2023-01-17T01:49:51.917Z,94997.38
2023-01-17T01:55:00.894Z,94995.78
2023-01-17T02:00:07.790Z,95002.28
2023-01-17T02:05:16.913Z,94996.50
2023-01-17T02:10:18.982Z,95007.56
2023-01-17T02:15:26.282Z,95002.56
2023-01-17T02:20:58.926Z,95005.25
2023-01-17T02:26:31.229Z,95017.59
2023-01-17T02:31:51.629Z,95004.50
2023-01-17T02:37:11.911Z,95009.88
2023-01-17T02:42:18.283Z,95016.00
2023-01-17T02:47:26.795Z,95019.75
2023-01-17T02:52:34.483Z,95029.72
2023-01-17T02:57:55.101Z,95037.72
2023-01-17T03:03:05.703Z,95047.31
2023-01-17T03:08:08.162Z,95046.13
2023-01-17T03:13:10.138Z,95052.09
2023-01-17T03:18:15.094Z,95066.41
2023-01-17T03:23:16.903Z,95068.47
2023-01-17T03:28:18.730Z,95070.28
2023-01-17T03:33:20.570Z,95074.84
2023-01-17T03:38:22.492Z,95084.44
2023-01-17T03:43:24.331Z,95094.03
2023-01-17T03:48:26.139Z,95089.38
2023-01-17T03:53:27.947Z,95095.56
2023-01-17T03:58:29.792Z,95098.69
2023-01-17T04:03:31.675Z,95111.00
2023-01-17T04:08:33.518Z,95109.09
2023-01-17T04:13:35.364Z,95114.16
2023-01-17T04:18:37.290Z,95126.09
2023-01-17T04:23:39.161Z,95168.44
2023-01-17T04:28:41.012Z,95120.41
2023-01-17T04:33:43.147Z,95143.13
2023-01-17T04:38:44.978Z,95145.47
2023-01-17T04:43:46.868Z,95153.59
2023-01-17T04:48:48.707Z,95160.41
2023-01-17T04:53:50.585Z,95173.13
2023-01-17T04:58:52.408Z,95171.59
2023-01-17T05:03:54.284Z,95185.44
2023-01-17T05:08:56.133Z,95190.91
2023-01-17T05:13:57.963Z,95207.38
2023-01-17T05:18:59.802Z,95198.91
2023-01-17T05:24:01.688Z,95205.81
2023-01-17T05:29:03.623Z,95201.22
2023-01-17T05:34:05.463Z,95215.06
2023-01-17T05:39:07.381Z,95221.69
2023-01-17T05:44:09.294Z,95218.63
2023-01-17T05:49:11.149Z,95227.66
2023-01-17T05:54:13.077Z,95232.59
2023-01-17T05:59:17.233Z,95229.16
2023-01-17T06:04:20.720Z,95249.88
2023-01-17T06:09:22.648Z,95240.69
2023-01-17T06:14:24.673Z,95243.81
2023-01-17T06:19:26.668Z,95252.31
2023-01-17T06:24:28.615Z,95255.44
2023-01-17T06:29:30.542Z,95267.78
2023-01-17T06:34:32.479Z,95258.63
2023-01-17T06:39:34.595Z,95272.09
2023-01-17T06:44:36.546Z,95274.03
2023-01-17T06:49:38.416Z,95279.41
2023-01-17T06:54:40.305Z,95277.50
2023-01-17T06:59:42.180Z,95289.78
2023-01-17T07:04:44.219Z,95297.84
2023-01-17T07:09:46.264Z,95315.53
2023-01-17T07:14:48.089Z,95320.56
2023-01-17T07:19:50.022Z,95313.63
2023-01-17T07:24:53.614Z,95312.91
2023-01-17T07:29:55.586Z,95324.41
2023-01-17T07:34:58.206Z,95335.94
2023-01-17T07:40:02.542Z,95331.72
2023-01-17T07:45:04.938Z,95338.63
2023-01-17T07:50:07.916Z,95346.69
2023-01-17T07:55:14.007Z,95347.88
2023-01-17T08:00:16.468Z,95350.97
2023-01-17T08:05:18.340Z,95351.78
2023-01-17T08:10:20.456Z,95360.97
2023-01-17T08:15:23.651Z,95353.31
2023-01-17T08:20:27.991Z,95354.09
2023-01-17T08:25:30.307Z,95356.75
2023-01-17T08:30:32.139Z,95379.28
2023-01-17T08:35:36.117Z,95374.59
2023-01-17T08:40:38.333Z,95393.78
2023-01-17T08:45:43.628Z,95400.75
2023-01-17T08:50:46.037Z,95409.13
2023-01-17T08:55:48.157Z,95415.53
2023-01-17T09:00:50.141Z,95420.34
2023-01-17T09:06:20.457Z,95413.31
2023-01-17T09:11:22.277Z,95430.34
2023-01-17T09:16:24.334Z,95430.13
2023-01-17T09:21:26.958Z,95439.03
2023-01-17T09:26:30.081Z,95437.47
2023-01-17T09:31:31.961Z,95448.22
2023-01-17T09:36:34.065Z,95446.69
2023-01-17T09:41:44.997Z,95453.59
2023-01-17T09:46:50.129Z,95455.00
2023-01-17T09:51:53.834Z,95459.50
2023-01-17T09:57:40.586Z,95448.28
2023-01-17T10:02:57.455Z,95451.63
2023-01-17T10:08:36.759Z,95453.81
2023-01-17T10:14:01.403Z,95451.94
2023-01-17T10:19:37.177Z,95459.38
2023-01-17T10:25:01.501Z,95461.28
2023-01-17T10:30:22.806Z,95455.47
2023-01-17T10:35:33.459Z,95467.06
2023-01-17T10:40:46.735Z,95477.19
2023-01-17T10:45:54.449Z,95482.59
2023-01-17T10:51:10.839Z,95491.84
2023-01-17T10:56:17.423Z,95494.59
2023-01-17T11:01:21.037Z,95507.69
2023-01-17T11:06:25.720Z,95506.59
2023-01-17T11:11:36.321Z,95502.75
2023-01-17T11:16:38.575Z,95488.91
2023-01-17T11:21:50.291Z,95482.00
2023-01-17T11:26:52.619Z,95501.28
2023-01-17T11:31:56.344Z,95493.22
2023-01-17T11:37:18.417Z,95491.31
2023-01-17T11:42:38.461Z,95488.22
2023-01-17T11:47:40.324Z,95482.78
2023-01-17T11:52:42.317Z,95485.44
2023-01-17T11:57:50.720Z,95485.41
2023-01-17T12:03:15.347Z,95481.84
2023-01-17T12:08:38.669Z,95480.28
2023-01-17T12:14:00.863Z,95483.72
2023-01-17T12:19:18.581Z,95480.94
2023-01-17T12:24:32.602Z,95481.28
2023-01-17T12:29:49.533Z,95491.63
2023-01-17T12:35:12.340Z,95483.63
2023-01-17T12:40:23.611Z,95492.44
2023-01-17T12:45:34.577Z,95499.78
2023-01-17T12:50:39.128Z,95500.78
2023-01-17T12:56:11.268Z,95496.53
2023-01-17T13:01:28.495Z,95487.59
2023-01-17T13:07:00.707Z,95483.59
2023-01-17T13:12:10.626Z,95479.63
2023-01-17T13:17:37.463Z,95476.34
2023-01-17T13:22:40.768Z,95480.09
2023-01-17T13:28:24.412Z,95492.19
2023-01-17T13:33:50.131Z,95492.91
2023-01-17T13:38:57.719Z,95498.06
2023-01-17T13:44:21.062Z,95516.19
2023-01-17T13:49:34.191Z,95527.25
2023-01-17T13:54:47.679Z,95511.31
2023-01-17T13:59:50.341Z,95506.91
2023-01-17T14:05:21.461Z,95516.56
2023-01-17T14:10:32.383Z,95512.81
2023-01-17T14:15:49.916Z,95521.88
2023-01-17T14:21:08.018Z,95523.59
2023-01-17T14:26:21.625Z,95517.53
2023-01-17T14:31:24.705Z,95522.50
2023-01-17T14:36:26.691Z,95528.38
2023-01-17T14:41:29.743Z,95533.31
2023-01-17T14:46:32.692Z,95545.03
2023-01-17T14:51:35.592Z,95541.09
2023-01-17T14:56:37.719Z,95548.50
2023-01-17T15:01:41.060Z,95554.22
2023-01-17T15:06:44.009Z,95549.72
2023-01-17T15:11:48.242Z,95560.53
2023-01-17T15:16:52.185Z,95563.63
2023-01-17T15:21:54.836Z,95569.75
2023-01-17T15:26:56.859Z,95578.56
2023-01-17T15:32:01.649Z,95573.91
2023-01-17T15:37:08.047Z,95573.34
2023-01-17T15:42:21.060Z,95576.28
2023-01-17T15:47:33.739Z,95582.66
2023-01-17T15:52:49.365Z,95582.03
2023-01-17T15:57:51.185Z,95577.94
2023-01-17T16:02:58.981Z,95572.66
2023-01-17T16:08:04.448Z,95584.66
2023-01-17T16:13:07.980Z,95579.34
2023-01-17T16:18:24.672Z,95583.72
2023-01-17T16:23:27.862Z,95580.75
2023-01-17T16:28:29.690Z,95584.28
2023-01-17T16:33:31.522Z,95585.50
2023-01-17T16:38:33.408Z,95584.34
2023-01-17T16:43:35.304Z,95573.59
2023-01-17T16:48:37.917Z,95575.13
2023-01-17T16:53:39.815Z,95578.97
2023-01-17T16:58:41.803Z,95565.19
2023-01-17T17:03:44.605Z,95559.81
2023-01-17T17:08:46.487Z,95568.25
2023-01-17T17:13:49.965Z,95555.94
2023-01-17T17:19:00.427Z,95549.41
2023-01-17T17:24:02.621Z,95546.69
2023-01-17T17:29:06.129Z,95555.84
2023-01-17T17:34:10.712Z,95568.06
2023-01-17T17:39:14.997Z,95588.38
2023-01-17T17:44:17.838Z,95589.53
2023-01-17T17:49:21.883Z,95583.44
2023-01-17T17:54:24.799Z,95579.63
2023-01-17T17:59:26.740Z,95578.84
2023-01-17T18:04:28.670Z,95580.38
2023-01-17T18:09:30.672Z,95584.47
2023-01-17T18:14:32.622Z,95592.09
2023-01-17T18:19:34.441Z,95594.72
2023-01-17T18:24:36.271Z,95591.63
2023-01-17T18:29:38.117Z,95592.31
2023-01-17T18:34:41.631Z,95580.09
2023-01-17T18:39:43.922Z,95583.81
2023-01-17T18:44:45.760Z,95585.28
2023-01-17T18:49:47.597Z,95591.06
2023-01-17T18:54:49.438Z,95579.78
2023-01-17T18:59:51.296Z,95595.06
2023-01-17T19:04:53.086Z,95598.75
2023-01-17T19:09:54.994Z,95592.47
2023-01-17T19:14:56.772Z,95590.84
2023-01-17T19:19:58.573Z,95601.44
2023-01-17T19:25:00.456Z,95597.53
2023-01-17T19:30:02.293Z,95605.16
2023-01-17T19:35:04.318Z,95609.00
2023-01-17T19:40:08.368Z,95610.03
2023-01-17T19:45:12.348Z,95605.09
2023-01-17T19:50:15.050Z,95616.44
2023-01-17T19:55:17.810Z,95615.69
2023-01-17T20:00:24.040Z,95610.75
2023-01-17T20:05:29.147Z,95621.88
2023-01-17T20:10:31.421Z,95633.19
2023-01-17T20:15:34.368Z,95630.88
2023-01-17T20:20:39.588Z,95642.28
2023-01-17T20:25:59.115Z,95639.97
2023-01-17T20:31:15.018Z,95649.97
2023-01-17T20:36:17.965Z,95654.63
2023-01-17T20:41:24.198Z,95659.06
2023-01-17T20:46:29.150Z,95661.66
2023-01-17T20:51:34.474Z,95668.03
2023-01-17T20:56:37.845Z,95661.16
2023-01-17T21:01:40.294Z,95655.69
2023-01-17T21:06:44.127Z,95647.09
2023-01-17T21:11:46.066Z,95651.78
2023-01-17T21:16:47.980Z,95653.22
2023-01-17T21:21:51.199Z,95655.50
2023-01-17T21:26:53.023Z,95652.88
2023-01-17T21:31:55.974Z,95647.47
2023-01-17T21:36:57.825Z,95653.44
2023-01-17T21:41:59.695Z,95643.63
2023-01-17T21:47:02.007Z,95652.09
2023-01-17T21:52:04.258Z,95642.00
2023-01-17T21:57:24.976Z,95644.97
2023-01-17T22:02:27.029Z,95631.06
2023-01-17T22:07:29.274Z,95625.66
2023-01-17T22:12:31.260Z,95626.75
2023-01-17T22:17:33.126Z,95615.50
2023-01-17T22:22:35.217Z,95612.47
2023-01-17T22:27:37.060Z,95617.44
2023-01-17T22:32:39.746Z,95598.75
2023-01-17T22:37:41.715Z,95609.56
2023-01-17T22:42:44.116Z,95602.97
2023-01-17T22:47:46.136Z,95594.34
2023-01-17T22:52:48.041Z,95593.22
2023-01-17T22:57:50.216Z,95584.84
2023-01-17T23:02:52.159Z,95573.72
2023-01-17T23:07:54.134Z,95559.84
2023-01-17T23:12:56.310Z,95560.91
2023-01-17T23:18:16.899Z,95554.81
2023-01-17T23:23:18.698Z,95552.38
2023-01-17T23:28:20.904Z,95556.03
2023-01-17T23:33:22.843Z,95551.69
2023-01-17T23:38:29.740Z,95558.38
2023-01-17T23:43:32.994Z,95549.34
2023-01-17T23:48:34.818Z,95550.16
2023-01-17T23:53:38.445Z,95553.22
2023-01-17T23:58:40.592Z,95560.53
